Time;durP1;ratioP1;P1;durP2;ratioP2;P2;SDS_P1;SDS_P2;PMS_P1;PMS_P2;Temp;Humidity;BMP_temperature;BMP_pressure;BME280_temperature;BME280_humidity;BME280_pressure;Samples;Min_cycle;Max_cycle;Signal;HPM_P1;HPM_P2
2023/10/15 00:00:18;;;;;;;5.80;1.00;;;;;;;;;;5093698;28;20047;-69
2023/10/15 00:02:44;;;;;;;4.57;0.95;;;;;;;;;;5076122;28;20040;-69
2023/10/15 00:05:12;;;;;;;2.63;0.93;;;;;;;;;;5091991;28;20043;-69
2023/10/15 00:07:38;;;;;;;3.92;0.55;;;;;;;;;;5093488;28;20611;-69
2023/10/15 00:10:10;;;;;;;2.88;0.70;;;;;;;;;;5092414;28;20048;-69
2023/10/15 00:12:37;;;;;;;3.60;0.70;;;;;;;;;;5093878;28;20501;-69
2023/10/15 00:15:03;;;;;;;3.42;0.55;;;;;;;;;;5085117;28;20067;-69
2023/10/15 00:17:30;;;;;;;4.32;0.85;;;;;;;;;;5086338;28;20050;-69
2023/10/15 00:19:56;;;;;;;3.85;0.60;;;;;;;;;;5084824;28;20031;-69
2023/10/15 00:22:22;;;;;;;2.45;0.50;;;;;;;;;;5093486;28;20618;-69
2023/10/15 00:24:48;;;;;;;2.97;0.60;;;;;;;;;;5090919;28;20156;-69
2023/10/15 00:27:16;;;;;;;2.47;0.40;;;;;;;;;;5088101;28;20050;-70
2023/10/15 00:29:42;;;;;;;3.97;1.33;;;;;;;;;;5089088;28;20048;-69
2023/10/15 00:32:09;;;;;;;4.88;0.70;;;;;;;;;;5089268;28;20041;-69
2023/10/15 00:34:35;;;;;;;6.72;0.82;;;;;;;;;;5092598;28;20040;-69
2023/10/15 00:37:01;;;;;;;5.50;1.10;;;;;;;;;;5093198;28;20123;-69
2023/10/15 00:39:27;;;;;;;3.20;0.82;;;;;;;;;;5075217;28;20043;-69
2023/10/15 00:41:53;;;;;;;5.22;0.70;;;;;;;;;;5092916;28;20101;-69
2023/10/15 00:44:20;;;;;;;2.95;0.57;;;;;;;;;;5075143;28;20440;-69
2023/10/15 00:46:54;;;;;;;2.28;0.47;;;;;;;;;;5086576;28;20040;-69
2023/10/15 00:49:21;;;;;;;2.92;0.60;;;;;;;;;;5083367;28;20490;-69
2023/10/15 00:51:47;;;;;;;3.00;0.40;;;;;;;;;;5088670;28;20397;-69
2023/10/15 00:54:16;;;;;;;2.90;0.70;;;;;;;;;;5092977;28;20039;-69
2023/10/15 00:56:44;;;;;;;2.08;0.68;;;;;;;;;;5093017;28;20512;-69
2023/10/15 00:59:17;;;;;;;2.30;0.50;;;;;;;;;;5091419;28;20452;-69
2023/10/15 01:02:22;;;;;;;3.60;0.80;;;;;;;;;;5083924;28;20074;-69
2023/10/15 01:04:36;;;;;;;1.15;0.50;;;;;;;;;;5084181;28;20600;-69
2023/10/15 01:07:14;;;;;;;2.47;0.52;;;;;;;;;;5092063;28;20039;-69
2023/10/15 01:09:41;;;;;;;3.03;0.50;;;;;;;;;;5081845;28;20115;-69
2023/10/15 01:12:23;;;;;;;5.03;0.60;;;;;;;;;;5083963;28;20032;-69
2023/10/15 01:14:49;;;;;;;3.85;0.80;;;;;;;;;;5089111;28;20104;-69
2023/10/15 01:17:14;;;;;;;4.80;0.60;;;;;;;;;;5083748;28;20502;-69
2023/10/15 01:19:40;;;;;;;3.35;0.85;;;;;;;;;;5090366;28;20028;-69
2023/10/15 01:22:10;;;;;;;3.38;0.70;;;;;;;;;;5089824;28;20032;-69
2023/10/15 01:24:37;;;;;;;3.55;1.00;;;;;;;;;;5092087;28;20114;-69
2023/10/15 01:29:33;;;;;;;3.42;0.85;;;;;;;;;;5092077;28;20125;-69
2023/10/15 01:32:07;;;;;;;2.53;0.90;;;;;;;;;;5090425;28;20072;-69
2023/10/15 01:34:41;;;;;;;2.90;1.02;;;;;;;;;;5087344;28;20048;-69
2023/10/15 01:37:15;;;;;;;4.75;1.08;;;;;;;;;;5089568;28;20048;-69
2023/10/15 01:39:46;;;;;;;3.67;1.23;;;;;;;;;;5074333;28;20492;-69
2023/10/15 01:42:31;;;;;;;5.43;0.93;;;;;;;;;;5092279;28;20490;-69
2023/10/15 01:47:37;;;;;;;2.92;0.70;;;;;;;;;;5088333;28;20044;-69
2023/10/15 01:50:08;;;;;;;6.00;0.73;;;;;;;;;;5092421;28;20123;-69
2023/10/15 01:52:40;;;;;;;;;;;;;;;;;;5092121;28;20571;-69
2023/10/15 01:55:06;;;;;;;4.75;0.95;;;;;;;;;;5086267;28;20275;-70
2023/10/15 01:57:32;;;;;;;2.40;0.55;;;;;;;;;;5087510;28;20402;-69
2023/10/15 02:00:32;;;;;;;4.05;0.80;;;;;;;;;;5083889;28;20032;-69
2023/10/15 02:02:59;;;;;;;3.63;0.70;;;;;;;;;;5087630;28;20107;-69
2023/10/15 02:05:30;;;;;;;3.03;0.75;;;;;;;;;;5091061;28;20036;-69
2023/10/15 02:07:56;;;;;;;;;;;;;;;;;;5088882;28;20090;-69
2023/10/15 02:10:25;;;;;;;2.88;0.70;;;;;;;;;;5090048;28;19916;-69
2023/10/15 02:13:04;;;;;;;2.60;0.60;;;;;;;;;;5091008;28;20176;-70
2023/10/15 02:15:40;;;;;;;4.00;0.65;;;;;;;;;;5083530;28;20130;-69
2023/10/15 02:18:14;;;;;;;4.50;0.80;;;;;;;;;;5090218;28;20059;-69
2023/10/15 02:23:09;;;;;;;5.13;0.93;;;;;;;;;;5091904;28;20094;-69
2023/10/15 02:25:45;;;;;;;1.58;0.70;;;;;;;;;;5091683;28;20478;-69
2023/10/15 02:28:12;;;;;;;2.80;0.52;;;;;;;;;;5087111;28;20486;-69
2023/10/15 02:30:40;;;;;;;2.72;0.68;;;;;;;;;;5062516;28;20052;-69
2023/10/15 02:33:06;;;;;;;4.38;0.77;;;;;;;;;;5086288;28;20044;-69
2023/10/15 02:35:39;;;;;;;1.83;0.57;;;;;;;;;;5084970;28;20052;-69
2023/10/15 02:38:10;;;;;;;2.15;0.70;;;;;;;;;;5064607;28;20078;-69
2023/10/15 02:40:55;;;;;;;5.68;0.73;;;;;;;;;;5084311;28;20465;-69
2023/10/15 02:43:23;;;;;;;2.10;0.65;;;;;;;;;;5083045;28;20058;-69
2023/10/15 02:45:49;;;;;;;2.25;0.90;;;;;;;;;;5087232;28;20050;-69
2023/10/15 02:48:19;;;;;;;1.77;0.60;;;;;;;;;;5090321;28;20115;-69
2023/10/15 02:51:03;;;;;;;2.60;0.50;;;;;;;;;;5084426;28;20067;-69
2023/10/15 02:53:34;;;;;;;2.13;0.50;;;;;;;;;;5085902;28;20036;-69
2023/10/15 02:56:00;;;;;;;2.27;0.60;;;;;;;;;;5086132;28;20044;-69
2023/10/15 02:58:28;;;;;;;2.15;0.50;;;;;;;;;;5086915;28;20032;-69
2023/10/15 03:01:06;;;;;;;2.30;0.50;;;;;;;;;;5088882;28;20097;-69
2023/10/15 03:03:36;;;;;;;2.00;0.52;;;;;;;;;;5088301;28;20040;-69
2023/10/15 03:06:02;;;;;;;2.45;0.60;;;;;;;;;;5072740;28;20044;-69
2023/10/15 03:08:32;;;;;;;2.88;0.70;;;;;;;;;;5088273;28;20035;-69
2023/10/15 03:11:02;;;;;;;1.17;0.50;;;;;;;;;;5087784;28;20563;-69
2023/10/15 03:13:28;;;;;;;2.50;0.40;;;;;;;;;;5086172;28;20040;-69
2023/10/15 03:15:57;;;;;;;2.40;0.57;;;;;;;;;;5072146;28;20047;-69
2023/10/15 03:18:23;;;;;;;2.78;0.70;;;;;;;;;;5068874;28;20105;-69
2023/10/15 03:20:50;;;;;;;2.03;0.70;;;;;;;;;;5090121;28;20379;-69
2023/10/15 03:23:17;;;;;;;2.47;0.65;;;;;;;;;;5089240;28;20071;-69
2023/10/15 03:25:43;;;;;;;1.40;0.57;;;;;;;;;;5088987;28;20051;-69
2023/10/15 03:28:12;;;;;;;2.30;0.50;;;;;;;;;;5075792;22;20055;-72
2023/10/15 03:30:44;;;;;;;2.83;0.75;;;;;;;;;;5048514;28;20048;-72
2023/10/15 03:33:14;;;;;;;2.92;0.70;;;;;;;;;;5053514;28;20518;-72
2023/10/15 03:35:45;;;;;;;2.20;0.50;;;;;;;;;;5050432;28;20083;-72
2023/10/15 03:38:14;;;;;;;4.03;0.80;;;;;;;;;;5060507;28;20454;-72
2023/10/15 03:40:46;;;;;;;1.00;0.60;;;;;;;;;;5073534;28;20033;-72
2023/10/15 03:43:15;;;;;;;2.85;0.60;;;;;;;;;;5072929;28;20505;-72
2023/10/15 03:45:50;;;;;;;2.67;0.60;;;;;;;;;;5076655;28;20040;-72
2023/10/15 03:48:29;;;;;;;1.65;0.60;;;;;;;;;;5078453;28;20088;-72
2023/10/15 03:50:58;;;;;;;2.38;0.60;;;;;;;;;;5075070;28;20119;-72
2023/10/15 03:53:28;;;;;;;2.42;0.70;;;;;;;;;;5073942;28;20040;-72
2023/10/15 03:56:01;;;;;;;3.92;0.63;;;;;;;;;;5068697;28;20071;-72
2023/10/15 03:58:27;;;;;;;2.33;0.82;;;;;;;;;;5072727;28;20044;-72
2023/10/15 04:01:22;;;;;;;0.85;0.40;;;;;;;;;;5067447;28;20052;-72
2023/10/15 04:03:48;;;;;;;4.10;0.65;;;;;;;;;;5070770;28;20037;-72
2023/10/15 04:06:14;;;;;;;3.85;1.05;;;;;;;;;;5075673;28;20102;-72
2023/10/15 04:08:59;;;;;;;2.47;0.60;;;;;;;;;;5074367;28;20048;-72
2023/10/15 04:11:29;;;;;;;3.95;1.10;;;;;;;;;;5072062;28;20044;-72
2023/10/15 04:13:56;;;;;;;3.25;0.65;;;;;;;;;;5068620;28;20049;-72
2023/10/15 04:16:25;;;;;;;3.50;0.73;;;;;;;;;;5071565;28;20060;-72
2023/10/15 04:18:51;;;;;;;1.63;0.68;;;;;;;;;;5057431;28;20052;-72
2023/10/15 04:21:19;;;;;;;2.95;0.60;;;;;;;;;;5050900;28;20066;-72
2023/10/15 04:23:52;;;;;;;1.20;0.50;;;;;;;;;;5043926;28;20044;-72
2023/10/15 04:26:22;;;;;;;1.45;0.60;;;;;;;;;;5045819;28;20763;-72
2023/10/15 04:28:52;;;;;;;1.60;0.57;;;;;;;;;;5058493;28;21945;-72
2023/10/15 04:31:22;;;;;;;2.42;0.82;;;;;;;;;;5067057;28;20491;-72
2023/10/15 04:33:52;;;;;;;2.40;0.70;;;;;;;;;;5067575;28;20112;-72
2023/10/15 04:36:19;;;;;;;2.05;0.63;;;;;;;;;;5067497;28;20040;-72
2023/10/15 04:38:45;;;;;;;2.67;0.95;;;;;;;;;;5069889;28;20086;-72
2023/10/15 04:41:11;;;;;;;3.42;0.82;;;;;;;;;;5070090;28;20028;-72
2023/10/15 04:43:41;;;;;;;5.60;0.70;;;;;;;;;;5069396;28;20561;-72
2023/10/15 04:46:25;;;;;;;3.88;0.60;;;;;;;;;;5070326;28;20068;-72
2023/10/15 04:48:52;;;;;;;2.38;0.70;;;;;;;;;;5065994;28;20047;-72
2023/10/15 04:51:18;;;;;;;4.10;0.85;;;;;;;;;;5066629;28;20433;-72
2023/10/15 04:53:44;;;;;;;1.38;0.50;;;;;;;;;;5068565;28;20038;-72
2023/10/15 04:56:12;;;;;;;2.90;0.65;;;;;;;;;;5064559;28;20033;-72
2023/10/15 04:58:39;;;;;;;4.55;0.88;;;;;;;;;;5067415;28;20145;-72
2023/10/15 05:01:06;;;;;;;4.35;1.13;;;;;;;;;;5060355;28;20071;-72
2023/10/15 05:03:32;;;;;;;2.38;0.60;;;;;;;;;;5066267;28;20398;-72
2023/10/15 05:06:02;;;;;;;5.40;0.90;;;;;;;;;;5053711;28;20067;-72
2023/10/15 05:08:28;;;;;;;3.20;0.63;;;;;;;;;;5057461;28;20448;-72
2023/10/15 05:10:54;;;;;;;3.42;0.80;;;;;;;;;;5064249;28;20552;-72
2023/10/15 05:13:20;;;;;;;3.22;0.80;;;;;;;;;;5063828;28;20037;-72
2023/10/15 05:15:47;;;;;;;3.95;1.05;;;;;;;;;;5066193;28;20127;-72
2023/10/15 05:18:15;;;;;;;5.55;1.10;;;;;;;;;;5059112;28;20071;-72
2023/10/15 05:20:41;;;;;;;2.03;0.82;;;;;;;;;;5063408;28;20086;-72
2023/10/15 05:23:07;;;;;;;2.70;0.85;;;;;;;;;;5067380;28;20383;-72
2023/10/15 05:25:33;;;;;;;3.50;0.85;;;;;;;;;;5069886;28;20502;-72
2023/10/15 05:27:59;;;;;;;4.85;0.63;;;;;;;;;;5065257;28;20036;-72
2023/10/15 05:30:26;;;;;;;1.23;0.60;;;;;;;;;;5065070;28;20578;-72
2023/10/15 05:32:52;;;;;;;4.65;0.70;;;;;;;;;;5070264;28;20036;-72
2023/10/15 05:35:18;;;;;;;4.45;0.70;;;;;;;;;;5065623;28;20044;-72
2023/10/15 05:37:45;;;;;;;1.75;0.50;;;;;;;;;;5067622;28;20561;-72
2023/10/15 05:40:17;;;;;;;2.72;0.70;;;;;;;;;;5067978;28;20028;-72
2023/10/15 05:42:43;;;;;;;4.65;0.90;;;;;;;;;;5067966;28;20052;-72
2023/10/15 05:45:09;;;;;;;4.55;0.80;;;;;;;;;;5069475;28;20125;-72
2023/10/15 05:47:35;;;;;;;3.58;0.82;;;;;;;;;;5064779;28;20105;-72
2023/10/15 05:50:04;;;;;;;5.88;0.88;;;;;;;;;;5063215;28;20048;-72
2023/10/15 05:52:30;;;;;;;4.72;1.00;;;;;;;;;;5060053;28;20044;-72
2023/10/15 05:54:56;;;;;;;2.67;0.68;;;;;;;;;;5066051;28;20052;-72
2023/10/15 05:57:22;;;;;;;4.30;0.65;;;;;;;;;;5066461;28;20403;-72
2023/10/15 05:59:50;;;;;;;2.75;0.50;;;;;;;;;;5049480;28;20044;-72
2023/10/15 06:02:17;;;;;;;4.43;0.77;;;;;;;;;;5056166;28;20628;-72
2023/10/15 06:04:43;;;;;;;1.52;0.43;;;;;;;;;;5064879;28;20045;-72
2023/10/15 06:07:10;;;;;;;3.30;0.57;;;;;;;;;;5065010;28;20043;-72
2023/10/15 06:09:36;;;;;;;3.20;0.75;;;;;;;;;;5065594;28;20577;-72
2023/10/15 06:12:03;;;;;;;2.75;0.80;;;;;;;;;;5060595;28;20304;-72
2023/10/15 06:14:28;;;;;;;1.88;0.47;;;;;;;;;;5065493;28;20086;-72
2023/10/15 06:16:57;;;;;;;4.88;0.60;;;;;;;;;;5064315;28;20044;-72
2023/10/15 06:19:24;;;;;;;1.80;0.60;;;;;;;;;;5064222;28;20048;-72
2023/10/15 06:21:50;;;;;;;0.73;0.40;;;;;;;;;;5060967;28;20043;-72
2023/10/15 06:24:16;;;;;;;1.92;0.80;;;;;;;;;;5062880;28;20044;-72
2023/10/15 06:26:42;;;;;;;1.63;0.38;;;;;;;;;;5056615;28;20086;-72
2023/10/15 06:29:09;;;;;;;2.08;0.50;;;;;;;;;;5063470;28;20044;-72
2023/10/15 06:31:36;;;;;;;4.50;0.60;;;;;;;;;;5066130;28;20068;-72
2023/10/15 06:34:02;;;;;;;1.85;0.60;;;;;;;;;;5067042;28;20075;-72
2023/10/15 06:36:28;;;;;;;2.50;0.38;;;;;;;;;;5066294;28;20127;-72
2023/10/15 06:38:56;;;;;;;2.58;0.40;;;;;;;;;;5067106;28;20123;-72
2023/10/15 06:41:24;;;;;;;1.85;0.57;;;;;;;;;;5066497;28;20036;-72
2023/10/15 06:43:50;;;;;;;1.88;0.40;;;;;;;;;;5060843;28;20114;-72
2023/10/15 06:46:16;;;;;;;2.22;0.70;;;;;;;;;;5067007;28;20036;-72
2023/10/15 06:48:42;;;;;;;3.78;0.82;;;;;;;;;;5063220;28;20044;-72
2023/10/15 06:51:09;;;;;;;2.25;0.60;;;;;;;;;;5068530;28;20045;-72
2023/10/15 06:53:35;;;;;;;2.22;0.40;;;;;;;;;;5068464;28;20078;-72
2023/10/15 06:56:02;;;;;;;2.42;0.82;;;;;;;;;;5066180;28;20040;-72
2023/10/15 06:58:30;;;;;;;3.25;0.68;;;;;;;;;;5065147;28;20040;-72
2023/10/15 07:00:57;;;;;;;1.08;0.40;;;;;;;;;;5069378;28;20465;-72
2023/10/15 07:03:23;;;;;;;3.05;0.52;;;;;;;;;;5071051;28;20036;-72
2023/10/15 07:05:49;;;;;;;4.13;0.68;;;;;;;;;;5067834;28;20040;-72
2023/10/15 07:08:16;;;;;;;3.53;0.35;;;;;;;;;;5066686;28;20546;-72
2023/10/15 07:10:42;;;;;;;2.60;0.52;;;;;;;;;;5063861;28;20044;-72
2023/10/15 07:13:08;;;;;;;1.48;0.60;;;;;;;;;;5074448;28;20301;-72
2023/10/15 07:15:38;;;;;;;1.95;0.50;;;;;;;;;;5067795;28;20098;-72
2023/10/15 07:18:04;;;;;;;0.93;0.30;;;;;;;;;;5073520;28;20055;-72
2023/10/15 07:20:31;;;;;;;2.03;0.30;;;;;;;;;;5075554;28;20056;-72
2023/10/15 07:23:00;;;;;;;1.83;0.40;;;;;;;;;;5074079;28;20040;-72
2023/10/15 07:25:29;;;;;;;1.58;0.32;;;;;;;;;;5066784;28;20044;-72
2023/10/15 07:27:59;;;;;;;1.27;0.30;;;;;;;;;;5067974;28;20415;-72
2023/10/15 07:30:25;;;;;;;2.47;0.50;;;;;;;;;;5070989;28;20064;-72
2023/10/15 07:32:53;;;;;;;1.92;0.32;;;;;;;;;;5071904;28;20583;-72
2023/10/15 07:35:21;;;;;;;0.52;0.30;;;;;;;;;;5067261;28;20086;-72
2023/10/15 07:37:49;;;;;;;1.23;0.40;;;;;;;;;;5074015;28;20037;-72
2023/10/15 07:40:21;;;;;;;1.45;0.38;;;;;;;;;;5073689;28;20398;-72
2023/10/15 07:42:52;;;;;;;1.00;0.40;;;;;;;;;;5075113;28;20036;-72
2023/10/15 07:45:20;;;;;;;1.45;0.45;;;;;;;;;;5076287;28;20115;-72
2023/10/15 07:47:46;;;;;;;2.42;0.40;;;;;;;;;;5074079;28;20037;-72
2023/10/15 07:50:13;;;;;;;2.35;0.60;;;;;;;;;;5072007;28;20039;-72
2023/10/15 07:52:40;;;;;;;0.50;0.47;;;;;;;;;;5072349;28;20033;-72
2023/10/15 07:55:06;;;;;;;2.65;0.63;;;;;;;;;;5070465;28;20051;-72
2023/10/15 07:57:32;;;;;;;3.22;0.90;;;;;;;;;;5072246;28;20406;-72
2023/10/15 07:59:58;;;;;;;2.95;0.68;;;;;;;;;;5076652;28;20036;-72
2023/10/15 08:02:26;;;;;;;4.15;0.60;;;;;;;;;;5075997;28;20067;-72
2023/10/15 08:04:56;;;;;;;1.38;0.50;;;;;;;;;;5072566;28;20546;-72
2023/10/15 08:07:22;;;;;;;5.03;0.50;;;;;;;;;;5075426;28;20039;-72
2023/10/15 08:09:52;;;;;;;3.67;0.55;;;;;;;;;;5072081;28;20123;-72
2023/10/15 08:12:18;;;;;;;1.50;0.80;;;;;;;;;;5074209;28;20510;-72
2023/10/15 08:14:45;;;;;;;3.78;0.88;;;;;;;;;;5074635;28;20040;-72
2023/10/15 08:17:12;;;;;;;2.88;1.70;;;;;;;;;;5072909;28;20513;-72
2023/10/15 08:19:38;;;;;;;2.30;1.42;;;;;;;;;;5069444;28;20040;-72
2023/10/15 08:22:04;;;;;;;2.28;1.00;;;;;;;;;;5072586;28;20491;-72
2023/10/15 08:24:30;;;;;;;4.28;0.57;;;;;;;;;;5071391;28;20033;-72
2023/10/15 08:26:56;;;;;;;4.03;0.50;;;;;;;;;;5069116;28;20067;-72
2023/10/15 08:29:22;;;;;;;3.08;0.80;;;;;;;;;;5070333;28;20116;-72
2023/10/15 08:31:48;;;;;;;3.15;0.60;;;;;;;;;;5073546;28;20478;-72
2023/10/15 08:34:14;;;;;;;1.63;0.38;;;;;;;;;;5063767;28;20120;-72
2023/10/15 08:36:40;;;;;;;3.47;0.50;;;;;;;;;;5069921;28;20044;-72
2023/10/15 08:39:09;;;;;;;2.97;0.60;;;;;;;;;;5073961;28;20044;-72
2023/10/15 08:41:38;;;;;;;3.47;0.88;;;;;;;;;;5072856;28;20043;-72
2023/10/15 08:44:07;;;;;;;5.25;0.63;;;;;;;;;;5072743;28;20040;-72
2023/10/15 08:46:36;;;;;;;1.98;0.50;;;;;;;;;;5068169;28;20060;-72
2023/10/15 08:49:02;;;;;;;2.13;0.47;;;;;;;;;;5069551;28;20090;-72
2023/10/15 08:51:28;;;;;;;1.77;0.50;;;;;;;;;;5073213;28;20441;-72
2023/10/15 08:53:57;;;;;;;1.63;0.47;;;;;;;;;;5070869;28;20046;-72
2023/10/15 08:56:28;;;;;;;2.67;0.60;;;;;;;;;;5069759;28;20126;-72
2023/10/15 08:58:54;;;;;;;2.93;0.43;;;;;;;;;;5072288;28;20041;-72
2023/10/15 09:01:21;;;;;;;1.52;0.50;;;;;;;;;;5071880;28;20291;-72
2023/10/15 09:03:47;;;;;;;1.98;0.40;;;;;;;;;;5065863;28;20037;-72
2023/10/15 09:06:13;;;;;;;3.35;0.60;;;;;;;;;;5069063;28;20131;-72
2023/10/15 09:08:41;;;;;;;1.40;0.68;;;;;;;;;;5070474;28;20435;-72
2023/10/15 09:11:07;;;;;;;0.60;0.40;;;;;;;;;;5069960;28;20062;-72
2023/10/15 09:13:36;;;;;;;1.73;0.60;;;;;;;;;;5072081;28;20284;-71
2023/10/15 09:16:03;;;;;;;2.70;0.80;;;;;;;;;;5065483;28;20380;-72
2023/10/15 09:18:31;;;;;;;3.00;0.65;;;;;;;;;;5066225;28;20043;-73
2023/10/15 09:20:58;;;;;;;2.70;0.60;;;;;;;;;;5070120;28;20043;-72
2023/10/15 09:23:24;;;;;;;2.42;0.70;;;;;;;;;;5072439;28;20106;-72
2023/10/15 09:25:55;;;;;;;3.20;0.60;;;;;;;;;;5071266;28;20119;-72
2023/10/15 09:28:22;;;;;;;1.55;0.50;;;;;;;;;;5100826;23;20071;-69
2023/10/15 09:30:49;;;;;;;0.98;0.60;;;;;;;;;;5110642;28;20051;-69
2023/10/15 09:33:17;;;;;;;1.98;0.93;;;;;;;;;;5090004;28;20123;-69
2023/10/15 09:35:43;;;;;;;1.98;0.60;;;;;;;;;;5109062;28;20044;-69
2023/10/15 09:38:13;;;;;;;2.70;0.60;;;;;;;;;;5111247;28;20417;-69
2023/10/15 09:40:40;;;;;;;3.38;0.90;;;;;;;;;;5112652;28;20042;-69
2023/10/15 09:43:08;;;;;;;2.95;0.52;;;;;;;;;;5110118;28;20036;-69
2023/10/15 09:45:34;;;;;;;5.28;1.05;;;;;;;;;;5109166;28;20043;-69
2023/10/15 09:48:00;;;;;;;2.97;0.50;;;;;;;;;;5113007;27;20413;-69
2023/10/15 09:50:27;;;;;;;3.92;1.20;;;;;;;;;;5115804;27;20067;-69
2023/10/15 09:52:57;;;;;;;3.70;0.75;;;;;;;;;;5092903;28;20040;-69
2023/10/15 09:55:24;;;;;;;3.72;0.90;;;;;;;;;;5110049;28;20031;-69
2023/10/15 09:57:57;;;;;;;4.90;1.13;;;;;;;;;;5098407;28;20032;-68
2023/10/15 10:00:46;;;;;;;4.68;0.82;;;;;;;;;;5110790;28;20084;-68
2023/10/15 10:03:30;;;;;;;2.08;0.60;;;;;;;;;;5110182;28;20044;-68
2023/10/15 10:06:09;;;;;;;4.47;0.90;;;;;;;;;;5107993;28;20405;-68
2023/10/15 10:08:44;;;;;;;2.72;0.77;;;;;;;;;;5104917;28;20044;-69
2023/10/15 10:11:10;;;;;;;6.32;1.33;;;;;;;;;;5108646;28;20040;-69
2023/10/15 10:13:55;;;;;;;7.03;0.88;;;;;;;;;;5112035;28;20042;-68
2023/10/15 10:16:26;;;;;;;3.25;0.95;;;;;;;;;;5108931;28;20098;-68
2023/10/15 10:18:53;;;;;;;5.93;0.93;;;;;;;;;;5108202;27;20042;-68
2023/10/15 10:21:19;;;;;;;5.50;0.95;;;;;;;;;;5114141;27;20435;-68
2023/10/15 10:23:46;;;;;;;4.05;0.82;;;;;;;;;;5111557;27;20040;-68
2023/10/15 10:26:13;;;;;;;7.03;1.00;;;;;;;;;;5108929;28;20156;-69
2023/10/15 10:28:40;;;;;;;4.80;0.70;;;;;;;;;;5111253;28;20055;-69
2023/10/15 10:31:07;;;;;;;3.25;0.80;;;;;;;;;;5108502;28;20063;-68
2023/10/15 10:33:49;;;;;;;7.03;0.85;;;;;;;;;;5107189;28;20391;-68
2023/10/15 10:36:16;;;;;;;4.40;0.68;;;;;;;;;;5110076;28;20039;-68
2023/10/15 10:38:42;;;;;;;3.50;0.98;;;;;;;;;;5111990;28;20119;-68
2023/10/15 10:41:14;;;;;;;3.65;0.85;;;;;;;;;;5111756;28;20046;-69
2023/10/15 10:43:45;;;;;;;5.82;0.70;;;;;;;;;;5109646;28;20481;-68
2023/10/15 10:46:21;;;;;;;5.43;1.25;;;;;;;;;;5111134;28;20047;-68
2023/10/15 10:49:02;;;;;;;4.03;0.70;;;;;;;;;;5108473;28;20050;-68
2023/10/15 10:51:33;;;;;;;3.97;1.02;;;;;;;;;;5110807;28;20114;-68
2023/10/15 10:53:59;;;;;;;2.60;0.73;;;;;;;;;;5109021;28;20035;-68
2023/10/15 10:56:45;;;;;;;3.35;0.75;;;;;;;;;;5111621;28;20552;-68
2023/10/15 10:59:12;;;;;;;6.72;0.95;;;;;;;;;;5111471;28;20192;-68
2023/10/15 11:01:45;;;;;;;5.30;0.90;;;;;;;;;;5111852;28;20067;-68
2023/10/15 11:04:16;;;;;;;4.28;0.70;;;;;;;;;;5108597;28;20110;-68
2023/10/15 11:06:45;;;;;;;3.83;0.82;;;;;;;;;;5111536;28;20405;-68
2023/10/15 11:09:20;;;;;;;4.55;0.75;;;;;;;;;;5093840;28;20039;-68
2023/10/15 11:11:50;;;;;;;3.42;0.55;;;;;;;;;;5111890;28;20450;-68
2023/10/15 11:14:18;;;;;;;5.63;0.93;;;;;;;;;;5110288;28;20115;-68
2023/10/15 11:16:44;;;;;;;3.67;0.70;;;;;;;;;;5112104;28;20105;-68
2023/10/15 11:19:16;;;;;;;4.93;1.17;;;;;;;;;;5112457;28;20039;-68
2023/10/15 11:21:43;;;;;;;2.15;0.43;;;;;;;;;;5112287;28;20440;-68
2023/10/15 11:24:12;;;;;;;2.50;0.55;;;;;;;;;;5109912;28;20042;-68
2023/10/15 11:26:42;;;;;;;2.92;0.63;;;;;;;;;;5110498;28;20108;-68
2023/10/15 11:29:12;;;;;;;2.92;0.82;;;;;;;;;;5108192;28;20046;-68
2023/10/15 11:31:42;;;;;;;3.17;0.60;;;;;;;;;;5108236;28;20137;-68
2023/10/15 11:34:08;;;;;;;2.55;0.60;;;;;;;;;;5109011;28;20043;-68
2023/10/15 11:36:36;;;;;;;3.97;0.50;;;;;;;;;;5108207;28;20089;-68
2023/10/15 11:39:09;;;;;;;4.13;0.68;;;;;;;;;;5110078;28;20035;-68
2023/10/15 11:41:38;;;;;;;4.88;0.75;;;;;;;;;;5103109;28;20061;-68
2023/10/15 11:44:06;;;;;;;4.45;0.63;;;;;;;;;;5109377;28;20115;-68
2023/10/15 11:46:33;;;;;;;3.28;0.80;;;;;;;;;;5111908;28;20043;-68
2023/10/15 11:49:01;;;;;;;5.22;0.90;;;;;;;;;;5110000;28;20047;-68
2023/10/15 11:51:31;;;;;;;5.50;0.80;;;;;;;;;;5109035;28;20059;-68
2023/10/15 11:54:01;;;;;;;5.93;0.90;;;;;;;;;;5110358;28;20095;-68
2023/10/15 11:56:27;;;;;;;2.78;0.70;;;;;;;;;;5107699;28;20305;-68
2023/10/15 11:58:54;;;;;;;5.45;0.50;;;;;;;;;;5109640;28;20054;-68
2023/10/15 12:01:20;;;;;;;4.30;0.90;;;;;;;;;;5091698;28;20031;-68
2023/10/15 12:03:48;;;;;;;4.25;1.15;;;;;;;;;;5112012;28;20041;-68
2023/10/15 12:06:16;;;;;;;6.70;1.17;;;;;;;;;;5114511;28;20040;-68
2023/10/15 12:08:42;;;;;;;4.18;0.70;;;;;;;;;;5113129;28;20036;-68
2023/10/15 12:11:08;;;;;;;3.28;0.60;;;;;;;;;;5111913;28;20039;-68
2023/10/15 12:13:34;;;;;;;2.55;0.70;;;;;;;;;;5113892;28;20038;-68
2023/10/15 12:16:02;;;;;;;3.35;0.70;;;;;;;;;;5094603;28;20114;-68
2023/10/15 12:18:28;;;;;;;4.13;0.73;;;;;;;;;;5113799;28;20036;-68
2023/10/15 12:20:54;;;;;;;4.50;0.80;;;;;;;;;;5113535;28;20058;-68
2023/10/15 12:23:20;;;;;;;1.30;0.30;;;;;;;;;;5114432;28;20035;-68
2023/10/15 12:25:46;;;;;;;5.28;1.02;;;;;;;;;;5108919;28;20078;-68
2023/10/15 12:28:12;;;;;;;3.83;0.55;;;;;;;;;;5113018;28;20047;-68
2023/10/15 12:30:40;;;;;;;5.85;1.02;;;;;;;;;;5113638;28;20374;-68
2023/10/15 12:33:07;;;;;;;5.72;0.98;;;;;;;;;;5114638;28;20178;-68
2023/10/15 12:35:33;;;;;;;2.97;0.50;;;;;;;;;;5113342;28;20469;-68
2023/10/15 12:38:02;;;;;;;3.25;0.65;;;;;;;;;;5111582;28;20063;-68
2023/10/15 12:40:32;;;;;;;3.03;0.70;;;;;;;;;;5109676;28;20088;-68
2023/10/15 12:43:08;;;;;;;1.70;0.52;;;;;;;;;;5114142;28;20036;-68
2023/10/15 12:45:34;;;;;;;5.15;0.65;;;;;;;;;;5106040;28;20054;-68
2023/10/15 12:48:01;;;;;;;2.55;0.70;;;;;;;;;;5113243;28;20044;-68
2023/10/15 12:50:27;;;;;;;4.38;0.63;;;;;;;;;;5113366;28;20178;-68
2023/10/15 12:52:56;;;;;;;3.72;0.63;;;;;;;;;;5113800;28;20570;-68
2023/10/15 12:55:25;;;;;;;3.17;0.95;;;;;;;;;;5112506;28;20498;-68
2023/10/15 12:57:51;;;;;;;3.28;1.08;;;;;;;;;;5113017;28;20039;-68
2023/10/15 13:00:18;;;;;;;1.55;0.50;;;;;;;;;;5112946;28;20397;-68
2023/10/15 13:02:45;;;;;;;4.50;0.80;;;;;;;;;;5113972;28;20116;-68
2023/10/15 13:05:13;;;;;;;4.95;0.70;;;;;;;;;;5113507;28;20054;-68
2023/10/15 13:07:39;;;;;;;12.88;1.52;;;;;;;;;;5113871;28;20040;-68
2023/10/15 13:10:07;;;;;;;4.70;0.95;;;;;;;;;;5112609;28;20120;-68
2023/10/15 13:12:33;;;;;;;5.07;0.80;;;;;;;;;;5112601;28;20043;-68
2023/10/15 13:14:59;;;;;;;4.32;0.73;;;;;;;;;;5111857;28;20039;-68
2023/10/15 13:17:25;;;;;;;3.85;0.50;;;;;;;;;;5111778;28;20039;-68
2023/10/15 13:19:52;;;;;;;3.22;0.52;;;;;;;;;;5111704;28;20446;-68
2023/10/15 13:22:20;;;;;;;5.53;0.80;;;;;;;;;;5113441;28;20390;-68
2023/10/15 13:24:46;;;;;;;3.50;0.60;;;;;;;;;;5113096;28;20540;-68
2023/10/15 13:27:12;;;;;;;1.70;0.60;;;;;;;;;;5109896;28;20047;-68
2023/10/15 13:29:38;;;;;;;2.50;0.45;;;;;;;;;;5112516;28;20036;-68
2023/10/15 13:32:06;;;;;;;1.65;0.40;;;;;;;;;;5110765;28;20046;-69
2023/10/15 13:34:32;;;;;;;2.67;0.65;;;;;;;;;;5112272;28;20050;-68
2023/10/15 13:36:57;;;;;;;1.65;0.40;;;;;;;;;;5113424;28;20047;-68
2023/10/15 13:39:28;;;;;;;5.90;0.47;;;;;;;;;;5111648;28;20077;-68
2023/10/15 13:41:54;;;;;;;2.75;0.50;;;;;;;;;;5113046;28;20047;-68
2023/10/15 13:44:20;;;;;;;5.03;0.70;;;;;;;;;;5112253;28;20058;-68
2023/10/15 13:46:47;;;;;;;5.18;0.85;;;;;;;;;;5112695;28;20428;-68
2023/10/15 13:49:13;;;;;;;1.48;0.30;;;;;;;;;;5111594;28;20078;-68
2023/10/15 13:51:40;;;;;;;4.18;0.60;;;;;;;;;;5111431;28;20031;-68
2023/10/15 13:54:07;;;;;;;4.47;1.00;;;;;;;;;;5112647;28;20119;-68
2023/10/15 13:56:33;;;;;;;4.28;0.65;;;;;;;;;;5112888;28;20044;-68
2023/10/15 13:58:59;;;;;;;3.28;0.70;;;;;;;;;;5113075;28;20050;-68
2023/10/15 14:01:25;;;;;;;3.33;1.00;;;;;;;;;;5091294;28;20940;-68
2023/10/15 14:03:54;;;;;;;2.88;0.70;;;;;;;;;;5112439;28;20504;-68
2023/10/15 14:06:20;;;;;;;3.30;0.60;;;;;;;;;;5109617;28;20355;-68
2023/10/15 14:08:46;;;;;;;4.72;0.45;;;;;;;;;;5111898;28;20050;-69
2023/10/15 14:11:13;;;;;;;5.70;0.77;;;;;;;;;;5111494;28;20039;-68
2023/10/15 14:13:39;;;;;;;2.42;0.50;;;;;;;;;;5111852;28;20547;-68
2023/10/15 14:16:05;;;;;;;4.07;0.80;;;;;;;;;;5108345;28;20130;-68
2023/10/15 14:18:31;;;;;;;1.60;0.55;;;;;;;;;;5111563;28;20028;-68
2023/10/15 14:20:57;;;;;;;5.18;0.98;;;;;;;;;;5112225;28;20035;-68
2023/10/15 14:23:26;;;;;;;1.98;0.50;;;;;;;;;;5097118;28;20524;-68
2023/10/15 14:25:52;;;;;;;3.55;0.47;;;;;;;;;;5106870;28;20143;-68
2023/10/15 14:28:18;;;;;;;3.70;0.55;;;;;;;;;;5087602;28;20079;-68
2023/10/15 14:30:44;;;;;;;4.25;0.73;;;;;;;;;;5099552;28;20054;-68
2023/10/15 14:33:10;;;;;;;4.18;0.80;;;;;;;;;;5102731;28;20036;-68
2023/10/15 14:35:36;;;;;;;6.03;0.63;;;;;;;;;;5106714;28;20031;-69
2023/10/15 14:38:02;;;;;;;4.63;0.88;;;;;;;;;;5110127;28;20067;-69
2023/10/15 14:40:28;;;;;;;3.15;0.50;;;;;;;;;;5107824;28;20088;-68
2023/10/15 14:42:54;;;;;;;5.18;0.90;;;;;;;;;;5112234;28;20082;-69
2023/10/15 14:45:21;;;;;;;3.25;0.50;;;;;;;;;;5109178;28;20075;-69
2023/10/15 14:47:47;;;;;;;2.42;0.60;;;;;;;;;;5111155;28;20031;-69
2023/10/15 14:50:13;;;;;;;2.58;0.68;;;;;;;;;;5099766;28;20508;-69
2023/10/15 14:52:39;;;;;;;4.22;0.93;;;;;;;;;;5107240;28;20047;-69
2023/10/15 14:55:06;;;;;;;5.93;0.80;;;;;;;;;;5110720;28;20073;-68
2023/10/15 14:57:32;;;;;;;4.15;0.65;;;;;;;;;;5110377;28;20123;-68